Time;durP1;ratioP1;P1;durP2;ratioP2;P2;SDS_P1;SDS_P2;PMS_P1;PMS_P2;Temp;Humidity;BMP_temperature;BMP_pressure;BME280_temperature;BME280_humidity;BME280_pressure;Samples;Min_cycle;Max_cycle;Signal;HPM_P1;HPM_P2
2022/12/31 00:00:40;;;;;;;0.10;0.10;;;10.20;99.90;226.50;231333.00;;;;5040241;28;20230;-70
2022/12/31 00:03:09;;;;;;;0.10;0.10;;;10.20;99.90;226.50;231333.00;;;;5036380;28;20191;-70
2022/12/31 00:05:37;;;;;;;0.10;0.10;;;10.30;99.90;226.50;231333.00;;;;5034609;28;20249;-70
2022/12/31 00:08:05;;;;;;;0.10;0.10;;;10.40;99.90;226.50;231333.00;;;;5031490;28;20203;-70
2022/12/31 00:10:40;;;;;;;0.10;0.10;;;10.40;99.90;226.50;231333.00;;;;5033200;28;20235;-72
2022/12/31 00:13:09;;;;;;;0.10;0.10;;;10.50;99.90;226.50;231333.00;;;;5028272;28;20575;-70
2022/12/31 00:15:37;;;;;;;0.10;0.10;;;10.50;99.90;226.50;231333.00;;;;5038513;28;20273;-70
2022/12/31 00:18:06;;;;;;;0.10;0.10;;;10.60;99.90;226.50;231333.00;;;;5009408;28;20608;-70
2022/12/31 00:20:38;;;;;;;0.10;0.10;;;10.60;99.90;226.50;231333.00;;;;5028526;28;20222;-71
2022/12/31 00:23:08;;;;;;;0.10;0.10;;;10.60;99.90;226.50;231333.00;;;;5031002;28;20587;-70
2022/12/31 00:25:38;;;;;;;0.00;0.00;;;10.60;99.90;226.50;231333.00;;;;5039497;28;20221;-69
2022/12/31 00:28:06;;;;;;;0.10;0.10;;;10.60;99.90;226.50;231333.00;;;;5027919;28;20207;-70
2022/12/31 00:30:34;;;;;;;0.10;0.10;;;10.70;99.90;226.50;231333.00;;;;5037927;28;20248;-70
2022/12/31 00:33:02;;;;;;;0.05;0.05;;;10.70;99.90;226.50;231333.00;;;;5034647;28;20224;-70
2022/12/31 00:35:30;;;;;;;0.10;0.10;;;10.70;99.90;226.50;231333.00;;;;5036809;28;20199;-70
2022/12/31 00:37:58;;;;;;;0.10;0.10;;;10.70;99.90;226.50;231333.00;;;;5025761;28;20191;-70
2022/12/31 00:40:28;;;;;;;0.10;0.10;;;10.70;99.90;226.50;231333.00;;;;5034550;28;20775;-70
2022/12/31 00:42:57;;;;;;;0.00;0.00;;;10.80;99.90;226.50;231333.00;;;;5038080;28;20245;-70
2022/12/31 00:45:25;;;;;;;0.10;0.10;;;10.80;99.90;226.50;231333.00;;;;5030911;28;20208;-70
2022/12/31 00:47:53;;;;;;;0.10;0.10;;;10.80;99.90;226.50;231333.00;;;;5031093;28;20670;-70
2022/12/31 00:50:21;;;;;;;0.10;0.10;;;10.80;99.90;226.50;231333.00;;;;5032641;28;20227;-70
2022/12/31 00:52:49;;;;;;;0.10;0.10;;;10.80;99.90;226.50;231333.00;;;;5032741;28;20281;-70
2022/12/31 00:55:17;;;;;;;0.10;0.10;;;10.90;99.90;226.50;231333.00;;;;5035662;28;20673;-70
2022/12/31 00:57:45;;;;;;;0.10;0.10;;;10.90;99.90;226.50;231333.00;;;;5029168;28;20197;-71
2022/12/31 01:00:16;;;;;;;0.10;0.10;;;10.90;99.90;226.50;231333.00;;;;5038263;28;20256;-70
2022/12/31 01:02:44;;;;;;;0.10;0.10;;;10.90;99.90;226.50;231333.00;;;;5034753;28;20202;-71
2022/12/31 01:05:12;;;;;;;0.10;0.10;;;10.90;99.90;226.50;231333.00;;;;5027287;28;20203;-71
2022/12/31 01:07:40;;;;;;;0.10;0.10;;;11.00;99.90;226.50;231333.00;;;;5033919;28;20227;-71
2022/12/31 01:10:09;;;;;;;0.10;0.10;;;10.90;99.90;226.50;231333.00;;;;5017171;28;20284;-71
2022/12/31 01:12:37;;;;;;;0.10;0.10;;;10.90;99.90;226.50;231333.00;;;;5032150;28;20200;-70
2022/12/31 01:15:06;;;;;;;0.10;0.10;;;10.90;99.90;226.50;231333.00;;;;5028033;28;20245;-71
2022/12/31 01:17:36;;;;;;;0.10;0.10;;;11.00;99.90;226.50;231333.00;;;;5034611;28;20203;-71
2022/12/31 01:20:06;;;;;;;0.10;0.10;;;11.00;99.90;226.50;231333.00;;;;5035148;28;20701;-70
2022/12/31 01:22:34;;;;;;;0.10;0.10;;;11.10;99.90;226.50;231333.00;;;;5029624;28;20196;-69
2022/12/31 01:25:02;;;;;;;0.10;0.10;;;11.10;99.90;226.50;231333.00;;;;5035957;28;20255;-70
2022/12/31 01:27:30;;;;;;;0.10;0.10;;;11.10;99.90;226.50;231333.00;;;;5031128;28;20280;-70
2022/12/31 01:29:58;;;;;;;0.00;0.00;;;11.20;99.90;226.50;231333.00;;;;5038635;28;20579;-70
2022/12/31 01:32:26;;;;;;;0.10;0.10;;;11.20;99.90;226.50;231333.00;;;;5029043;28;20624;-73
2022/12/31 01:34:55;;;;;;;0.00;0.00;;;11.20;99.90;226.50;231333.00;;;;5035806;28;20186;-70
2022/12/31 01:37:23;;;;;;;0.10;0.10;;;11.20;99.90;226.50;231333.00;;;;5026037;28;20203;-70
2022/12/31 01:39:51;;;;;;;0.10;0.10;;;11.30;99.90;226.50;231333.00;;;;5030084;28;20222;-70
2022/12/31 01:42:19;;;;;;;0.10;0.10;;;11.30;99.90;226.50;231333.00;;;;5037539;28;20195;-71
2022/12/31 01:44:52;;;;;;;0.10;0.10;;;11.30;99.90;226.50;231333.00;;;;5034444;28;20677;-70
2022/12/31 01:47:34;;;;;;;0.10;0.10;;;11.40;99.90;226.50;231333.00;;;;5036898;28;20273;-70
2022/12/31 01:50:12;;;;;;;0.10;0.10;;;11.40;99.90;226.50;231333.00;;;;5035692;28;20218;-70
2022/12/31 01:52:43;;;;;;;0.10;0.10;;;11.40;99.90;226.50;231333.00;;;;5039823;28;20240;-71
2022/12/31 01:55:19;;;;;;;0.10;0.10;;;11.40;99.90;226.50;231333.00;;;;5036513;28;20629;-70
2022/12/31 01:57:51;;;;;;;0.10;0.10;;;11.40;99.90;226.50;231333.00;;;;5030313;28;20205;-70
2022/12/31 02:00:20;;;;;;;0.03;0.03;;;11.40;99.90;226.50;231333.00;;;;5041982;28;20280;-71
2022/12/31 02:02:48;;;;;;;0.10;0.10;;;11.50;99.90;226.50;231333.00;;;;5034051;28;20186;-71
2022/12/31 02:05:27;;;;;;;0.10;0.10;;;11.50;99.90;226.50;231333.00;;;;5034890;28;20199;-71
2022/12/31 02:07:56;;;;;;;0.10;0.10;;;11.50;99.90;226.50;231333.00;;;;5029946;28;20217;-70
2022/12/31 02:10:24;;;;;;;0.10;0.10;;;11.50;99.90;226.50;231333.00;;;;5025685;28;20239;-71
2022/12/31 02:12:52;;;;;;;0.10;0.10;;;11.60;99.90;226.50;231333.00;;;;5027614;28;20605;-70
2022/12/31 02:15:30;;;;;;;0.00;0.00;;;11.60;99.90;226.50;231333.00;;;;5037958;28;20203;-70
2022/12/31 02:18:10;;;;;;;0.10;0.10;;;11.60;99.90;226.50;231333.00;;;;5026775;28;20203;-70
2022/12/31 02:21:44;;;;;;;0.00;0.00;;;11.60;99.90;226.50;231333.00;;;;5034383;28;20269;-70
2022/12/31 02:24:52;;;;;;;0.10;0.10;;;11.60;99.90;226.50;231333.00;;;;4952600;28;20708;-70
2022/12/31 02:27:44;;;;;;;0.00;0.00;;;11.60;99.90;226.50;231333.00;;;;4945794;28;20300;-70
2022/12/31 02:30:18;;;;;;;0.10;0.10;;;11.60;99.90;226.50;231333.00;;;;5032210;28;20299;-70
2022/12/31 02:33:03;;;;;;;0.00;0.00;;;11.60;99.90;226.50;231333.00;;;;5032899;28;20252;-72
2022/12/31 02:35:41;;;;;;;0.00;0.00;;;11.60;99.90;226.50;231333.00;;;;5044583;28;20195;-72
2022/12/31 02:38:15;;;;;;;0.10;0.10;;;11.60;99.90;226.50;231333.00;;;;5039973;28;20225;-73
2022/12/31 02:40:46;;;;;;;0.10;0.10;;;11.60;99.90;226.50;231333.00;;;;5038895;28;20210;-73
2022/12/31 02:43:14;;;;;;;0.00;0.00;;;11.60;99.90;226.50;231333.00;;;;5045317;28;20198;-73
2022/12/31 02:45:50;;;;;;;0.10;0.10;;;11.70;99.90;226.50;231333.00;;;;5049278;28;20233;-72
2022/12/31 02:48:38;;;;;;;0.10;0.10;;;11.70;99.90;226.50;231333.00;;;;5029995;28;20222;-72
2022/12/31 02:51:28;;;;;;;0.10;0.10;;;11.70;99.90;226.50;231333.00;;;;5029272;28;20192;-73
2022/12/31 02:54:16;;;;;;;0.10;0.10;;;11.70;99.90;226.50;231333.00;;;;5033003;28;20704;-72
2022/12/31 02:56:58;;;;;;;0.10;0.10;;;11.70;99.90;226.50;231333.00;;;;5028210;28;20738;-71
2022/12/31 03:02:24;;;;;;;0.10;0.10;;;11.70;99.90;226.50;231333.00;;;;5036093;28;20197;-72
2022/12/31 03:04:55;;;;;;;0.10;0.10;;;11.70;99.90;226.50;231333.00;;;;5032115;28;20280;-72
2022/12/31 03:07:26;;;;;;;0.10;0.10;;;11.70;99.90;226.50;231333.00;;;;5037241;28;20623;-71
2022/12/31 03:09:55;;;;;;;0.10;0.10;;;11.80;99.90;226.50;231333.00;;;;5065678;23;20295;-73
2022/12/31 03:12:45;;;;;;;0.10;0.10;;;11.80;99.90;226.50;231333.00;;;;5045911;28;20249;-74
2022/12/31 03:15:19;;;;;;;0.10;0.10;;;11.80;99.90;226.50;231333.00;;;;5037654;28;20213;-74
2022/12/31 03:17:57;;;;;;;0.10;0.10;;;11.90;99.90;226.50;231333.00;;;;5031706;28;20282;-74
2022/12/31 03:23:20;;;;;;;0.10;0.10;;;11.90;99.90;226.50;231333.00;;;;5023869;28;20203;-74
2022/12/31 03:25:48;;;;;;;0.10;0.10;;;11.90;99.90;226.50;231333.00;;;;5037156;28;20194;-75
2022/12/31 03:28:20;;;;;;;0.00;0.00;;;11.90;99.90;226.50;231333.00;;;;5032310;28;20227;-74
2022/12/31 03:30:52;;;;;;;0.03;0.03;;;11.90;99.90;226.50;231333.00;;;;5039738;28;20218;-74
2022/12/31 03:33:22;;;;;;;0.05;0.05;;;11.90;99.90;226.50;231333.00;;;;5034010;28;20199;-73
2022/12/31 03:35:52;;;;;;;0.10;0.10;;;11.80;99.90;226.50;231333.00;;;;5032903;28;20246;-74
2022/12/31 03:38:20;;;;;;;0.10;0.10;;;11.80;99.90;226.50;231333.00;;;;5037446;28;20211;-74
2022/12/31 03:40:51;;;;;;;0.10;0.10;;;11.80;99.90;226.50;231333.00;;;;5031357;28;20220;-74
2022/12/31 03:43:20;;;;;;;0.10;0.10;;;11.80;99.90;226.50;231333.00;;;;5029179;28;20206;-74
2022/12/31 03:45:51;;;;;;;0.08;0.08;;;11.80;99.90;226.50;231333.00;;;;5020720;28;20609;-73
2022/12/31 03:48:22;;;;;;;0.03;0.03;;;11.80;99.90;226.50;231333.00;;;;5031202;28;20241;-73
2022/12/31 03:50:51;;;;;;;0.10;0.10;;;11.80;99.90;226.50;231333.00;;;;5016792;28;20249;-74
2022/12/31 03:53:19;;;;;;;0.10;0.10;;;11.80;99.90;226.50;231333.00;;;;5039708;28;20229;-74
2022/12/31 03:55:51;;;;;;;0.08;0.08;;;11.80;99.90;226.50;231333.00;;;;5027973;28;20202;-74
2022/12/31 03:58:19;;;;;;;0.10;0.10;;;11.80;99.90;226.50;231333.00;;;;5032997;28;20253;-74
2022/12/31 04:00:47;;;;;;;0.10;0.10;;;11.80;99.90;226.50;231333.00;;;;5032743;28;20214;-74
2022/12/31 04:03:15;;;;;;;0.10;0.10;;;11.80;99.90;226.50;231333.00;;;;5030230;28;20685;-75
2022/12/31 04:05:45;;;;;;;0.10;0.10;;;11.90;99.90;226.50;231333.00;;;;5034985;28;20230;-74
2022/12/31 04:08:13;;;;;;;0.10;0.10;;;11.80;99.90;226.50;231333.00;;;;5035833;28;20253;-75
2022/12/31 04:10:41;;;;;;;0.10;0.10;;;11.90;99.90;226.50;231333.00;;;;5038851;28;20231;-74
2022/12/31 04:13:09;;;;;;;0.10;0.10;;;11.90;99.90;226.50;231333.00;;;;5040860;28;20445;-74
2022/12/31 04:15:37;;;;;;;0.00;0.00;;;11.90;99.90;226.50;231333.00;;;;5034197;28;20207;-74
2022/12/31 04:18:05;;;;;;;0.10;0.10;;;11.90;99.90;226.50;231333.00;;;;5033203;28;20210;-74
2022/12/31 04:20:33;;;;;;;0.10;0.10;;;11.90;99.90;226.50;231333.00;;;;5034981;28;20211;-73
2022/12/31 04:23:03;;;;;;;0.00;0.00;;;12.00;99.90;226.50;231333.00;;;;5026273;28;20282;-73
2022/12/31 04:25:31;;;;;;;0.10;0.10;;;12.00;99.90;226.50;231333.00;;;;5031245;28;20196;-73
2022/12/31 04:27:59;;;;;;;0.10;0.10;;;12.00;99.90;226.50;231333.00;;;;5031852;28;20280;-73
2022/12/31 04:30:26;;;;;;;0.10;0.10;;;12.00;99.90;226.50;231333.00;;;;5035563;28;20578;-73
2022/12/31 04:32:54;;;;;;;0.10;0.10;;;12.00;99.90;226.50;231333.00;;;;5007855;28;20195;-75
2022/12/31 04:35:22;;;;;;;0.00;0.00;;;12.00;99.90;226.50;231333.00;;;;5029067;28;20226;-73
2022/12/31 04:37:50;;;;;;;0.10;0.10;;;12.00;99.90;226.50;231333.00;;;;5033134;28;20206;-73
2022/12/31 04:40:20;;;;;;;0.00;0.00;;;12.00;99.90;226.50;231333.00;;;;5034559;28;20219;-75
2022/12/31 04:42:48;;;;;;;0.10;0.10;;;12.00;99.90;226.50;231333.00;;;;5028622;28;20636;-72
2022/12/31 04:45:16;;;;;;;0.00;0.00;;;12.00;99.90;226.50;231333.00;;;;5034902;28;20226;-75
2022/12/31 04:47:44;;;;;;;0.00;0.00;;;12.00;99.90;226.50;231333.00;;;;5038920;28;20205;-72
2022/12/31 04:50:11;;;;;;;0.00;0.00;;;12.10;99.90;226.50;231333.00;;;;5044208;28;20218;-73
2022/12/31 04:52:40;;;;;;;0.10;0.10;;;12.10;99.90;226.50;231333.00;;;;5035547;28;20246;-73
2022/12/31 04:55:11;;;;;;;0.10;0.10;;;12.20;99.90;226.50;231333.00;;;;5038372;28;20199;-74
2022/12/31 04:57:41;;;;;;;0.10;0.10;;;12.10;99.90;226.50;231333.00;;;;5031521;28;20203;-73
2022/12/31 05:00:10;;;;;;;0.10;0.10;;;12.20;99.90;226.50;231333.00;;;;5026410;28;20222;-73
2022/12/31 05:02:38;;;;;;;0.10;0.10;;;12.30;99.90;226.50;231333.00;;;;5035503;28;20203;-73
2022/12/31 05:05:07;;;;;;;0.00;0.00;;;12.30;99.90;226.50;231333.00;;;;5040853;28;20203;-73
2022/12/31 05:07:35;;;;;;;0.00;0.00;;;12.40;99.90;226.50;231333.00;;;;5035550;28;20207;-73
2022/12/31 05:10:05;;;;;;;0.00;0.00;;;12.40;99.90;226.50;231333.00;;;;5040423;28;20230;-73
2022/12/31 05:12:33;;;;;;;0.00;0.00;;;12.50;99.90;226.50;231333.00;;;;5032858;28;20605;-73
2022/12/31 05:15:02;;;;;;;0.10;0.10;;;12.50;99.90;226.50;231333.00;;;;5043002;28;20739;-73
2022/12/31 05:17:30;;;;;;;0.00;0.00;;;12.50;99.90;226.50;231333.00;;;;5044202;28;20218;-73
2022/12/31 05:19:58;;;;;;;0.00;0.00;;;12.50;99.90;226.50;231333.00;;;;5039082;28;20279;-73
2022/12/31 05:22:28;;;;;;;0.00;0.00;;;12.50;99.90;226.50;231333.00;;;;5033090;28;20265;-73
2022/12/31 05:24:57;;;;;;;0.00;0.00;;;12.60;99.90;226.50;231333.00;;;;5034726;28;20723;-73
2022/12/31 05:27:27;;;;;;;0.10;0.10;;;12.60;99.90;226.50;231333.00;;;;5029235;28;20226;-73
2022/12/31 05:29:55;;;;;;;0.10;0.10;;;12.70;99.90;226.50;231333.00;;;;5035683;28;20228;-72
2022/12/31 05:32:24;;;;;;;0.00;0.00;;;12.70;99.90;226.50;231333.00;;;;5022741;28;20666;-72
2022/12/31 05:34:52;;;;;;;0.00;0.00;;;12.80;99.90;226.50;231333.00;;;;5040056;28;20624;-73
2022/12/31 05:37:20;;;;;;;0.00;0.00;;;12.80;99.90;226.50;231333.00;;;;5016576;28;20203;-72
2022/12/31 05:39:48;;;;;;;0.00;0.00;;;12.80;99.90;226.50;231333.00;;;;5038893;28;20275;-73
2022/12/31 05:42:16;;;;;;;0.00;0.00;;;12.80;99.90;226.50;231333.00;;;;5029477;28;20253;-72
2022/12/31 05:44:44;;;;;;;0.00;0.00;;;12.80;99.90;226.50;231333.00;;;;5039791;28;20202;-73
2022/12/31 05:47:13;;;;;;;0.00;0.00;;;12.80;99.90;226.50;231333.00;;;;5030268;28;20203;-72
2022/12/31 05:49:42;;;;;;;0.10;0.10;;;12.80;99.90;226.50;231333.00;;;;5044193;28;20277;-72
2022/12/31 05:52:10;;;;;;;0.00;0.00;;;12.80;99.90;226.50;231333.00;;;;5038989;28;20203;-72
2022/12/31 05:54:38;;;;;;;0.00;0.00;;;12.80;99.90;226.50;231333.00;;;;5043625;28;20213;-72
2022/12/31 05:57:07;;;;;;;0.10;0.10;;;12.80;99.90;226.50;231333.00;;;;5033295;28;20200;-74
2022/12/31 05:59:35;;;;;;;0.00;0.00;;;12.80;99.90;226.50;231333.00;;;;5030584;28;20830;-73
2022/12/31 06:02:03;;;;;;;0.00;0.00;;;12.70;99.90;226.50;231333.00;;;;5026207;28;20246;-73
2022/12/31 06:04:31;;;;;;;0.10;0.10;;;12.70;99.90;226.50;231333.00;;;;5041225;28;20477;-74
2022/12/31 06:07:01;;;;;;;0.00;0.00;;;12.70;99.90;226.50;231333.00;;;;5033904;28;20192;-74
2022/12/31 06:09:29;;;;;;;0.00;0.00;;;12.80;99.90;226.50;231333.00;;;;5028893;28;20537;-74
2022/12/31 06:11:57;;;;;;;0.00;0.00;;;12.80;99.90;226.50;231333.00;;;;5013513;28;20203;-74
2022/12/31 06:14:25;;;;;;;0.00;0.00;;;12.80;99.90;226.50;231333.00;;;;5032238;28;20187;-74
2022/12/31 06:16:53;;;;;;;0.00;0.00;;;12.70;99.90;226.50;231333.00;;;;5044881;28;20199;-74
2022/12/31 06:19:23;;;;;;;0.10;0.10;;;12.70;99.90;226.50;231333.00;;;;5036537;28;20298;-74
2022/12/31 06:21:51;;;;;;;0.00;0.00;;;12.70;99.90;226.50;231333.00;;;;5026953;28;20682;-74
2022/12/31 06:24:21;;;;;;;0.10;0.10;;;12.60;99.90;226.50;231333.00;;;;5030223;28;20209;-74
2022/12/31 06:26:50;;;;;;;0.00;0.00;;;12.60;99.90;226.50;231333.00;;;;5018241;28;20246;-74
2022/12/31 06:29:18;;;;;;;0.10;0.10;;;12.60;99.90;226.50;231333.00;;;;5028327;28;20227;-74
2022/12/31 06:31:47;;;;;;;0.00;0.00;;;12.60;99.90;226.50;231333.00;;;;5020916;28;20188;-75
2022/12/31 06:34:15;;;;;;;0.03;0.03;;;12.60;99.90;226.50;231333.00;;;;5021244;28;20234;-75
2022/12/31 06:36:43;;;;;;;0.00;0.00;;;12.60;99.90;226.50;231333.00;;;;5021855;28;20566;-75
2022/12/31 06:39:11;;;;;;;0.10;0.10;;;12.60;99.90;226.50;231333.00;;;;5013529;28;20258;-75
2022/12/31 06:41:41;;;;;;;0.00;0.00;;;12.60;99.90;226.50;231333.00;;;;5028477;28;20257;-74
2022/12/31 06:44:09;;;;;;;0.10;0.10;;;12.60;99.90;226.50;231333.00;;;;5026432;28;20581;-74
2022/12/31 06:46:37;;;;;;;0.00;0.00;;;12.60;99.90;226.50;231333.00;;;;5034167;28;20199;-74
2022/12/31 06:49:05;;;;;;;0.00;0.00;;;12.60;99.90;226.50;231333.00;;;;5044533;28;20237;-74
2022/12/31 06:51:33;;;;;;;0.00;0.00;;;12.60;99.90;226.50;231333.00;;;;5045476;28;20650;-74
2022/12/31 06:54:01;;;;;;;0.00;0.00;;;12.70;99.90;226.50;231333.00;;;;5024277;28;20246;-75
2022/12/31 06:56:30;;;;;;;0.03;0.03;;;12.70;99.90;226.50;231333.00;;;;5032379;28;20206;-75
2022/12/31 06:59:04;;;;;;;0.00;0.00;;;12.70;99.90;226.50;231333.00;;;;5026551;28;20200;-74
2022/12/31 07:01:50;;;;;;;0.10;0.10;;;12.80;99.90;226.50;231333.00;;;;5034443;28;20203;-74
2022/12/31 07:05:01;;;;;;;0.00;0.00;;;12.80;99.90;226.50;231333.00;;;;5014495;28;20199;-75
2022/12/31 07:07:38;;;;;;;0.00;0.00;;;12.80;99.90;226.50;231333.00;;;;5023646;28;20198;-75
2022/12/31 07:10:19;;;;;;;0.00;0.00;;;12.90;99.90;226.50;231333.00;;;;5032507;28;20763;-75
2022/12/31 07:13:08;;;;;;;0.03;0.03;;;13.00;99.90;226.50;231333.00;;;;5034170;28;20202;-74
2022/12/31 07:16:04;;;;;;;0.10;0.10;;;13.00;99.90;226.50;231333.00;;;;5034512;28;20237;-74
2022/12/31 07:18:41;;;;;;;0.00;0.00;;;13.00;99.90;226.50;231333.00;;;;5034234;28;20199;-74
2022/12/31 07:21:14;;;;;;;0.00;0.00;;;13.10;99.90;226.50;231333.00;;;;5040467;28;20301;-74
2022/12/31 07:23:43;;;;;;;0.10;0.10;;;13.10;99.90;226.50;231333.00;;;;5017130;28;20221;-74
2022/12/31 07:26:24;;;;;;;0.00;0.00;;;13.20;99.90;226.50;231333.00;;;;5036148;28;20211;-75
2022/12/31 07:29:05;;;;;;;0.00;0.00;;;13.20;99.90;226.50;231333.00;;;;5036259;28;20322;-75
2022/12/31 07:31:52;;;;;;;0.10;0.10;;;13.30;99.90;226.50;231333.00;;;;5035461;28;20673;-74
2022/12/31 07:34:31;;;;;;;0.00;0.00;;;13.30;99.90;226.50;231333.00;;;;5031142;28;20195;-74
2022/12/31 07:37:09;;;;;;;0.10;0.10;;;13.30;99.90;226.50;231333.00;;;;5037099;28;20202;-76
2022/12/31 07:39:51;;;;;;;0.00;0.00;;;13.30;99.90;226.50;231333.00;;;;5033519;28;20225;-74
2022/12/31 07:42:27;;;;;;;0.03;0.03;;;13.30;99.90;226.50;231333.00;;;;5017434;28;20265;-75
2022/12/31 07:45:06;;;;;;;0.03;0.03;;;13.30;99.90;226.50;231333.00;;;;5035021;28;20198;-74
2022/12/31 07:47:36;;;;;;;0.10;0.10;;;13.30;99.90;226.50;231333.00;;;;5029365;28;20200;-74
2022/12/31 07:50:06;;;;;;;0.10;0.10;;;13.40;99.90;226.50;231333.00;;;;5034806;28;20273;-74
2022/12/31 07:52:35;;;;;;;0.10;0.10;;;13.40;99.90;226.50;231333.00;;;;5032472;28;20199;-74
2022/12/31 07:55:03;;;;;;;0.00;0.00;;;13.40;99.90;226.50;231333.00;;;;5041878;28;20637;-74
2022/12/31 07:57:40;;;;;;;0.05;0.05;;;13.30;99.90;226.50;231333.00;;;;5028434;28;20680;-74
2022/12/31 08:00:14;;;;;;;0.00;0.00;;;13.30;99.90;226.50;231333.00;;;;5037255;28;20636;-74
2022/12/31 08:03:16;;;;;;;0.00;0.00;;;13.40;99.90;226.50;231333.00;;;;5027155;28;20723;-75
2022/12/31 08:05:54;;;;;;;0.10;0.10;;;13.40;99.90;226.50;231333.00;;;;5029270;28;20957;-74
2022/12/31 08:08:36;;;;;;;0.10;0.10;;;13.40;99.90;226.50;231333.00;;;;5028590;28;20622;-74
2022/12/31 08:11:16;;;;;;;0.10;0.10;;;13.40;99.90;226.50;231333.00;;;;5028675;28;20230;-74
2022/12/31 08:13:45;;;;;;;0.05;0.05;;;13.50;99.90;226.50;231333.00;;;;5022774;28;20194;-74
2022/12/31 08:16:14;;;;;;;0.00;0.00;;;13.50;99.90;226.50;231333.00;;;;5036861;28;20215;-74
2022/12/31 08:18:44;;;;;;;0.00;0.00;;;13.60;99.90;226.50;231333.00;;;;5029665;28;20228;-74
2022/12/31 08:21:24;;;;;;;0.10;0.10;;;13.60;99.90;226.50;231333.00;;;;5030381;28;20294;-74
2022/12/31 08:24:16;;;;;;;0.00;0.00;;;13.70;99.90;226.50;231333.00;;;;5022426;28;20215;-74
2022/12/31 08:26:56;;;;;;;0.10;0.10;;;13.70;99.90;226.50;231333.00;;;;5025845;28;20202;-74
2022/12/31 08:29:36;;;;;;;0.00;0.00;;;13.70;99.90;226.50;231333.00;;;;5029919;28;20218;-74
2022/12/31 08:32:15;;;;;;;0.00;0.00;;;13.80;99.90;226.50;231333.00;;;;5038060;28;20202;-74
2022/12/31 08:35:00;;;;;;;0.10;0.10;;;13.80;99.90;226.50;231333.00;;;;5037151;28;20253;-75
2022/12/31 08:37:37;;;;;;;0.00;0.00;;;13.80;99.90;226.50;231333.00;;;;5038093;28;20256;-74
2022/12/31 08:40:22;;;;;;;0.00;0.00;;;13.70;99.90;226.50;231333.00;;;;5026923;28;20217;-74
2022/12/31 08:43:11;;;;;;;0.00;0.00;;;13.70;99.90;226.50;231333.00;;;;5024230;28;20218;-74
2022/12/31 08:45:47;;;;;;;0.00;0.00;;;13.70;99.90;226.50;231333.00;;;;5032559;28;20215;-74
2022/12/31 08:48:29;;;;;;;0.00;0.00;;;13.60;99.90;226.50;231333.00;;;;5011985;28;20233;-75
2022/12/31 08:51:00;;;;;;;0.00;0.00;;;13.60;99.90;226.50;231333.00;;;;5032152;28;20234;-75
2022/12/31 08:53:28;;;;;;;0.00;0.00;;;13.70;99.90;226.50;231333.00;;;;5040922;28;20245;-75
2022/12/31 08:56:09;;;;;;;0.00;0.00;;;13.70;99.90;226.50;231333.00;;;;5038181;28;20969;-75
2022/12/31 08:58:50;;;;;;;0.10;0.10;;;13.70;99.90;226.50;231333.00;;;;5041085;28;20203;-74
2022/12/31 09:01:26;;;;;;;0.00;0.00;;;13.70;99.90;226.50;231333.00;;;;5026048;28;20781;-74
2022/12/31 09:04:11;;;;;;;0.00;0.00;;;13.80;99.90;226.50;231333.00;;;;5025093;28;20209;-75
2022/12/31 09:06:51;;;;;;;0.00;0.00;;;13.80;99.90;226.50;231333.00;;;;5017261;28;20290;-74
2022/12/31 09:09:32;;;;;;;0.10;0.10;;;13.90;99.90;226.50;231333.00;;;;5045342;23;20227;-74
2022/12/31 09:12:14;;;;;;;0.00;0.00;;;13.90;99.90;226.50;231333.00;;;;5009252;28;20219;-71
2022/12/31 09:14:46;;;;;;;0.00;0.00;;;14.00;99.90;226.50;231333.00;;;;5018413;28;20609;-71
2022/12/31 09:17:43;;;;;;;0.05;0.05;;;14.00;99.90;226.50;231333.00;;;;5013163;28;20202;-71
2022/12/31 09:20:23;;;;;;;0.00;0.00;;;14.10;99.90;226.50;231333.00;;;;5014840;28;20740;-71
2022/12/31 09:22:55;;;;;;;0.10;0.10;;;14.10;99.90;226.50;231333.00;;;;5007730;28;20210;-72
2022/12/31 09:25:25;;;;;;;0.05;0.05;;;14.10;99.90;226.50;231333.00;;;;5021890;28;20202;-72
2022/12/31 09:28:18;;;;;;;0.00;0.00;;;14.20;99.90;226.50;231333.00;;;;5005541;28;20203;-72
2022/12/31 09:30:58;;;;;;;0.10;0.10;;;14.20;99.90;226.50;231333.00;;;;5008800;28;20231;-71
2022/12/31 09:33:40;;;;;;;0.10;0.10;;;14.20;99.90;226.50;231333.00;;;;5007131;28;20251;-71
2022/12/31 09:36:14;;;;;;;0.10;0.10;;;14.20;99.90;226.50;231333.00;;;;5010375;28;20196;-72
2022/12/31 09:38:52;;;;;;;0.03;0.03;;;14.30;99.90;226.50;231333.00;;;;5028814;28;20234;-71
2022/12/31 09:41:58;;;;;;;0.00;0.00;;;14.30;99.90;226.50;231333.00;;;;5022712;28;20628;-71
2022/12/31 09:45:16;;;;;;;0.00;0.00;;;14.40;99.90;226.50;231333.00;;;;5002787;28;20207;-71
2022/12/31 09:48:37;;;;;;;0.00;0.00;;;14.40;99.90;226.50;231333.00;;;;5022694;28;20203;-72
2022/12/31 09:51:21;;;;;;;0.03;0.03;;;14.40;99.90;226.50;231333.00;;;;4997402;28;20706;-71
2022/12/31 09:54:19;;;;;;;0.00;0.00;;;14.40;99.90;226.50;231333.00;;;;5013831;28;20556;-72
2022/12/31 09:57:07;;;;;;;0.00;0.00;;;14.40;99.90;226.50;231333.00;;;;5011609;28;20199;-72
2022/12/31 09:59:46;;;;;;;0.08;0.08;;;14.50;99.90;226.50;231333.00;;;;5021292;28;20598;-74
2022/12/31 10:02:47;;;;;;;0.00;0.00;;;14.50;99.90;226.50;231333.00;;;;5024296;28;20248;-73
2022/12/31 10:05:46;;;;;;;0.00;0.00;;;14.50;99.90;226.50;231333.00;;;;5009842;28;20191;-72
2022/12/31 10:08:41;;;;;;;0.00;0.00;;;14.50;99.90;226.50;231333.00;;;;5017457;28;20611;-72
2022/12/31 10:11:22;;;;;;;0.00;0.00;;;14.50;99.90;226.50;231333.00;;;;5009393;28;20269;-72
2022/12/31 10:14:15;;;;;;;0.00;0.00;;;14.50;99.90;226.50;231333.00;;;;5015511;28;20204;-72
2022/12/31 10:16:58;;;;;;;0.00;0.00;;;14.60;99.90;226.50;231333.00;;;;5014632;28;20199;-73
2022/12/31 10:20:06;;;;;;;0.00;0.00;;;14.60;99.90;226.50;231333.00;;;;5004812;28;20207;-71
2022/12/31 10:23:08;;;;;;;0.08;0.08;;;14.60;99.90;226.50;231333.00;;;;5014983;28;20245;-72
2022/12/31 10:26:06;;;;;;;0.00;0.00;;;14.50;99.90;226.50;231333.00;;;;5005882;28;20218;-71
2022/12/31 10:28:48;;;;;;;0.03;0.03;;;14.60;99.90;226.50;231333.00;;;;5015326;28;20203;-71
2022/12/31 10:31:32;;;;;;;0.00;0.00;;;14.60;99.90;226.50;231333.00;;;;5015825;28;20224;-72
2022/12/31 10:34:15;;;;;;;0.00;0.00;;;14.60;99.90;226.50;231333.00;;;;5009332;28;20203;-71
2022/12/31 10:36:54;;;;;;;0.00;0.00;;;14.60;99.90;13.40;96036.00;;;;5011405;28;20619;-71
2022/12/31 10:39:41;;;;;;;0.00;0.00;;;14.60;99.90;13.40;95933.00;;;;5012211;28;20230;-71
2022/12/31 10:43:00;;;;;;;0.00;0.00;;;14.70;99.90;13.90;93333.00;;;;5007290;28;20254;-71
2022/12/31 10:46:19;;;;;;;0.00;0.00;;;14.70;99.90;13.40;95786.00;;;;5004967;28;20215;-72
2022/12/31 10:49:30;;;;;;;0.00;0.00;;;14.70;99.90;13.40;95759.00;;;;5011864;28;20203;-71
2022/12/31 10:52:33;;;;;;;0.00;0.00;;;14.70;99.90;13.40;95767.00;;;;4983831;28;20617;-72
2022/12/31 10:55:56;;;;;;;0.00;0.00;;;14.70;99.90;13.50;95781.00;;;;5004370;28;20206;-72
2022/12/31 10:59:20;;;;;;;0.00;0.00;;;14.80;99.90;226.50;164415.00;;;;5010554;28;20188;-72
2022/12/31 11:02:18;;;;;;;0.00;0.00;;;14.80;99.90;226.50;231333.00;;;;4999664;28;20199;-71
2022/12/31 11:05:37;;;;;;;0.00;0.00;;;14.80;99.90;226.50;231333.00;;;;4997620;28;20670;-72
2022/12/31 11:08:35;;;;;;;0.03;0.03;;;14.90;99.90;226.50;231333.00;;;;5013765;28;20727;-72
2022/12/31 11:11:25;;;;;;;0.00;0.00;;;14.90;99.90;226.50;231333.00;;;;5014550;28;20710;-71
2022/12/31 11:14:42;;;;;;;0.00;0.00;;;15.00;99.90;226.50;231333.00;;;;4988105;28;20204;-72
2022/12/31 11:17:31;;;;;;;0.10;0.10;;;15.10;99.90;226.50;231333.00;;;;4981577;28;20251;-71
2022/12/31 11:20:31;;;;;;;0.05;0.05;;;15.20;99.90;226.50;231333.00;;;;5012369;28;20273;-72
2022/12/31 11:23:18;;;;;;;0.00;0.00;;;15.30;99.90;226.50;231333.00;;;;5010919;28;20708;-72
2022/12/31 11:26:05;;;;;;;0.00;0.00;;;15.40;99.90;226.50;231333.00;;;;4984999;28;20231;-71